sensor_id;sensor_type;location;lat;lon;timestamp;P1;durP1;ratioP1;P2;durP2;ratioP2
3249;SDS011;1637;42.020;23.992;2023-01-28T00:01:55;123.47;;;60.27;;
3249;SDS011;1637;42.020;23.992;2023-01-28T00:04:21;171.37;;;76.97;;
3249;SDS011;1637;42.020;23.992;2023-01-28T00:06:48;165.70;;;73.27;;
3249;SDS011;1637;42.020;23.992;2023-01-28T00:09:15;154.77;;;63.27;;
3249;SDS011;1637;42.020;23.992;2023-01-28T00:11:42;131.70;;;64.57;;
3249;SDS011;1637;42.020;23.992;2023-01-28T00:14:11;120.87;;;53.10;;
3249;SDS011;1637;42.020;23.992;2023-01-28T00:16:38;120.67;;;56.23;;
3249;SDS011;1637;42.020;23.992;2023-01-28T00:19:05;122.80;;;57.83;;
3249;SDS011;1637;42.020;23.992;2023-01-28T00:21:31;114.87;;;53.93;;
3249;SDS011;1637;42.020;23.992;2023-01-28T00:23:58;130.33;;;62.20;;
3249;SDS011;1637;42.020;23.992;2023-01-28T00:26:25;141.23;;;64.40;;
3249;SDS011;1637;42.020;23.992;2023-01-28T00:28:52;139.50;;;66.37;;
3249;SDS011;1637;42.020;23.992;2023-01-28T00:31:21;163.40;;;68.70;;
3249;SDS011;1637;42.020;23.992;2023-01-28T00:33:50;141.73;;;66.40;;
3249;SDS011;1637;42.020;23.992;2023-01-28T00:36:17;136.80;;;62.93;;
3249;SDS011;1637;42.020;23.992;2023-01-28T00:38:48;169.37;;;73.73;;
3249;SDS011;1637;42.020;23.992;2023-01-28T00:41:16;167.33;;;74.67;;
3249;SDS011;1637;42.020;23.992;2023-01-28T00:43:46;156.03;;;66.00;;
3249;SDS011;1637;42.020;23.992;2023-01-28T00:46:13;160.10;;;69.90;;
3249;SDS011;1637;42.020;23.992;2023-01-28T00:48:42;155.80;;;69.70;;
3249;SDS011;1637;42.020;23.992;2023-01-28T00:51:10;137.50;;;66.20;;
3249;SDS011;1637;42.020;23.992;2023-01-28T00:53:38;162.70;;;70.77;;
3249;SDS011;1637;42.020;23.992;2023-01-28T00:56:06;158.73;;;73.60;;
3249;SDS011;1637;42.020;23.992;2023-01-28T00:58:34;170.70;;;75.47;;
3249;SDS011;1637;42.020;23.992;2023-01-28T01:01:05;168.80;;;73.50;;
3249;SDS011;1637;42.020;23.992;2023-01-28T01:03:33;167.80;;;73.47;;
3249;SDS011;1637;42.020;23.992;2023-01-28T01:06:01;170.33;;;72.97;;
3249;SDS011;1637;42.020;23.992;2023-01-28T01:08:28;158.33;;;70.97;;
3249;SDS011;1637;42.020;23.992;2023-01-28T01:10:59;143.07;;;64.53;;
3249;SDS011;1637;42.020;23.992;2023-01-28T01:13:26;145.23;;;67.90;;
3249;SDS011;1637;42.020;23.992;2023-01-28T01:15:59;137.37;;;63.03;;
3249;SDS011;1637;42.020;23.992;2023-01-28T01:18:27;125.90;;;59.00;;
3249;SDS011;1637;42.020;23.992;2023-01-28T01:20:54;121.60;;;56.87;;
3249;SDS011;1637;42.020;23.992;2023-01-28T01:23:24;115.63;;;58.00;;
3249;SDS011;1637;42.020;23.992;2023-01-28T01:25:51;97.53;;;48.20;;
3249;SDS011;1637;42.020;23.992;2023-01-28T01:28:19;90.27;;;45.20;;
3249;SDS011;1637;42.020;23.992;2023-01-28T01:30:47;94.30;;;47.20;;
3249;SDS011;1637;42.020;23.992;2023-01-28T01:33:14;93.27;;;46.37;;
3249;SDS011;1637;42.020;23.992;2023-01-28T01:35:42;92.17;;;43.60;;
3249;SDS011;1637;42.020;23.992;2023-01-28T01:38:09;75.57;;;39.13;;
3249;SDS011;1637;42.020;23.992;2023-01-28T01:40:37;76.23;;;37.67;;
3249;SDS011;1637;42.020;23.992;2023-01-28T01:43:11;71.30;;;34.83;;
3249;SDS011;1637;42.020;23.992;2023-01-28T01:45:41;64.37;;;33.93;;
3249;SDS011;1637;42.020;23.992;2023-01-28T01:48:10;73.90;;;36.30;;
3249;SDS011;1637;42.020;23.992;2023-01-28T01:50:43;72.13;;;35.87;;
3249;SDS011;1637;42.020;23.992;2023-01-28T01:53:17;65.03;;;35.17;;
3249;SDS011;1637;42.020;23.992;2023-01-28T01:55:49;65.80;;;36.00;;
3249;SDS011;1637;42.020;23.992;2023-01-28T01:58:20;65.70;;;34.97;;
3249;SDS011;1637;42.020;23.992;2023-01-28T02:00:51;68.77;;;36.80;;
3249;SDS011;1637;42.020;23.992;2023-01-28T02:03:18;65.00;;;36.97;;
3249;SDS011;1637;42.020;23.992;2023-01-28T02:05:51;78.70;;;38.60;;
3249;SDS011;1637;42.020;23.992;2023-01-28T02:08:18;71.57;;;37.63;;
3249;SDS011;1637;42.020;23.992;2023-01-28T02:10:49;84.67;;;40.50;;
3249;SDS011;1637;42.020;23.992;2023-01-28T02:13:20;87.57;;;42.40;;
3249;SDS011;1637;42.020;23.992;2023-01-28T02:15:49;81.83;;;43.20;;
3249;SDS011;1637;42.020;23.992;2023-01-28T02:18:17;81.63;;;41.43;;
3249;SDS011;1637;42.020;23.992;2023-01-28T02:20:49;91.40;;;45.70;;
3249;SDS011;1637;42.020;23.992;2023-01-28T02:24:00;75.97;;;37.67;;
3249;SDS011;1637;42.020;23.992;2023-01-28T02:26:51;195.27;;;85.23;;
3249;SDS011;1637;42.020;23.992;2023-01-28T02:29:30;80.07;;;38.17;;
3249;SDS011;1637;42.020;23.992;2023-01-28T02:32:03;106.73;;;47.30;;
3249;SDS011;1637;42.020;23.992;2023-01-28T02:34:37;150.93;;;68.30;;
3249;SDS011;1637;42.020;23.992;2023-01-28T02:37:08;109.83;;;51.97;;
3249;SDS011;1637;42.020;23.992;2023-01-28T02:39:41;92.30;;;41.60;;
3249;SDS011;1637;42.020;23.992;2023-01-28T02:42:11;85.77;;;38.80;;
3249;SDS011;1637;42.020;23.992;2023-01-28T02:44:45;80.53;;;39.40;;
3249;SDS011;1637;42.020;23.992;2023-01-28T02:47:12;83.47;;;39.60;;
3249;SDS011;1637;42.020;23.992;2023-01-28T02:49:58;89.57;;;40.87;;
3249;SDS011;1637;42.020;23.992;2023-01-28T02:52:40;89.40;;;44.13;;
3249;SDS011;1637;42.020;23.992;2023-01-28T02:55:37;78.17;;;33.60;;
3249;SDS011;1637;42.020;23.992;2023-01-28T02:58:09;79.30;;;36.87;;
3249;SDS011;1637;42.020;23.992;2023-01-28T03:00:45;90.50;;;41.97;;
3249;SDS011;1637;42.020;23.992;2023-01-28T03:03:20;98.10;;;43.43;;
3249;SDS011;1637;42.020;23.992;2023-01-28T03:05:51;66.77;;;30.33;;
3249;SDS011;1637;42.020;23.992;2023-01-28T03:08:34;58.60;;;31.10;;
3249;SDS011;1637;42.020;23.992;2023-01-28T03:11:22;66.57;;;33.90;;
3249;SDS011;1637;42.020;23.992;2023-01-28T03:14:07;44.87;;;21.63;;
3249;SDS011;1637;42.020;23.992;2023-01-28T03:16:53;54.13;;;28.60;;
3249;SDS011;1637;42.020;23.992;2023-01-28T03:19:41;21.00;;;10.83;;
3249;SDS011;1637;42.020;23.992;2023-01-28T03:22:26;25.20;;;13.37;;
3249;SDS011;1637;42.020;23.992;2023-01-28T03:25:15;35.13;;;17.57;;
3249;SDS011;1637;42.020;23.992;2023-01-28T03:28:02;31.03;;;16.73;;
3249;SDS011;1637;42.020;23.992;2023-01-28T03:30:50;31.83;;;16.10;;
3249;SDS011;1637;42.020;23.992;2023-01-28T03:33:41;17.40;;;9.10;;
3249;SDS011;1637;42.020;23.992;2023-01-28T03:36:26;7.47;;;4.37;;
3249;SDS011;1637;42.020;23.992;2023-01-28T03:39:13;6.30;;;3.67;;
3249;SDS011;1637;42.020;23.992;2023-01-28T03:41:41;4.97;;;3.33;;
3249;SDS011;1637;42.020;23.992;2023-01-28T03:44:07;3.37;;;2.27;;
3249;SDS011;1637;42.020;23.992;2023-01-28T03:46:52;5.23;;;3.23;;
3249;SDS011;1637;42.020;23.992;2023-01-28T03:49:20;4.33;;;2.60;;
3249;SDS011;1637;42.020;23.992;2023-01-28T03:51:47;8.47;;;4.77;;
3249;SDS011;1637;42.020;23.992;2023-01-28T03:54:13;17.67;;;9.33;;
3249;SDS011;1637;42.020;23.992;2023-01-28T03:56:40;3.70;;;2.60;;
3249;SDS011;1637;42.020;23.992;2023-01-28T03:59:07;5.60;;;3.70;;
3249;SDS011;1637;42.020;23.992;2023-01-28T04:01:34;6.03;;;4.07;;
3249;SDS011;1637;42.020;23.992;2023-01-28T04:04:01;3.83;;;2.90;;
3249;SDS011;1637;42.020;23.992;2023-01-28T04:06:29;1.53;;;1.30;;
3249;SDS011;1637;42.020;23.992;2023-01-28T04:08:56;2.00;;;1.40;;
3249;SDS011;1637;42.020;23.992;2023-01-28T04:11:24;2.07;;;1.60;;
3249;SDS011;1637;42.020;23.992;2023-01-28T04:13:51;1.90;;;1.60;;
3249;SDS011;1637;42.020;23.992;2023-01-28T04:16:18;1.70;;;1.20;;
3249;SDS011;1637;42.020;23.992;2023-01-28T04:18:45;1.70;;;1.20;;
3249;SDS011;1637;42.020;23.992;2023-01-28T04:21:12;1.50;;;1.17;;
3249;SDS011;1637;42.020;23.992;2023-01-28T04:23:40;6.07;;;1.97;;
3249;SDS011;1637;42.020;23.992;2023-01-28T04:26:07;1.43;;;1.30;;
3249;SDS011;1637;42.020;23.992;2023-01-28T04:28:34;1.57;;;1.20;;
3249;SDS011;1637;42.020;23.992;2023-01-28T04:31:01;1.90;;;1.43;;
3249;SDS011;1637;42.020;23.992;2023-01-28T04:33:28;4.50;;;2.90;;
3249;SDS011;1637;42.020;23.992;2023-01-28T04:35:54;3.30;;;2.83;;
3249;SDS011;1637;42.020;23.992;2023-01-28T04:38:21;13.63;;;8.57;;
3249;SDS011;1637;42.020;23.992;2023-01-28T04:40:50;2.40;;;1.87;;
3249;SDS011;1637;42.020;23.992;2023-01-28T04:43:17;2.33;;;1.50;;
3249;SDS011;1637;42.020;23.992;2023-01-28T04:45:45;2.77;;;1.80;;
3249;SDS011;1637;42.020;23.992;2023-01-28T04:48:12;24.43;;;10.87;;
3249;SDS011;1637;42.020;23.992;2023-01-28T04:50:39;5.47;;;1.80;;
3249;SDS011;1637;42.020;23.992;2023-01-28T04:53:05;1.57;;;1.47;;
3249;SDS011;1637;42.020;23.992;2023-01-28T04:55:32;1.90;;;1.03;;
3249;SDS011;1637;42.020;23.992;2023-01-28T04:58:00;1.50;;;1.17;;
3249;SDS011;1637;42.020;23.992;2023-01-28T05:00:27;2.10;;;1.43;;
3249;SDS011;1637;42.020;23.992;2023-01-28T05:02:54;1.83;;;1.10;;
3249;SDS011;1637;42.020;23.992;2023-01-28T05:05:21;1.50;;;1.17;;
3249;SDS011;1637;42.020;23.992;2023-01-28T05:07:51;1.23;;;1.03;;
3249;SDS011;1637;42.020;23.992;2023-01-28T05:10:19;1.93;;;1.27;;
3249;SDS011;1637;42.020;23.992;2023-01-28T05:12:46;2.47;;;1.50;;
3249;SDS011;1637;42.020;23.992;2023-01-28T05:15:15;2.73;;;1.43;;
3249;SDS011;1637;42.020;23.992;2023-01-28T05:17:42;1.30;;;1.20;;
3249;SDS011;1637;42.020;23.992;2023-01-28T05:20:10;1.50;;;1.20;;
3249;SDS011;1637;42.020;23.992;2023-01-28T05:22:39;1.20;;;1.10;;
3249;SDS011;1637;42.020;23.992;2023-01-28T05:25:06;1.50;;;1.07;;
3249;SDS011;1637;42.020;23.992;2023-01-28T05:27:34;1.50;;;1.20;;
3249;SDS011;1637;42.020;23.992;2023-01-28T05:30:01;1.60;;;1.13;;
3249;SDS011;1637;42.020;23.992;2023-01-28T05:32:29;2.17;;;1.30;;
3249;SDS011;1637;42.020;23.992;2023-01-28T05:34:56;1.77;;;1.27;;
3249;SDS011;1637;42.020;23.992;2023-01-28T05:37:22;1.67;;;1.10;;
3249;SDS011;1637;42.020;23.992;2023-01-28T05:39:49;1.50;;;1.27;;
3249;SDS011;1637;42.020;23.992;2023-01-28T05:42:16;3.07;;;1.73;;
3249;SDS011;1637;42.020;23.992;2023-01-28T05:44:45;1.50;;;1.10;;
3249;SDS011;1637;42.020;23.992;2023-01-28T05:47:11;1.67;;;1.20;;
3249;SDS011;1637;42.020;23.992;2023-01-28T05:49:40;1.30;;;1.00;;
3249;SDS011;1637;42.020;23.992;2023-01-28T05:52:06;1.00;;;0.90;;
3249;SDS011;1637;42.020;23.992;2023-01-28T05:54:33;2.17;;;1.23;;
3249;SDS011;1637;42.020;23.992;2023-01-28T05:57:00;1.93;;;1.30;;
3249;SDS011;1637;42.020;23.992;2023-01-28T05:59:27;2.17;;;1.57;;
3249;SDS011;1637;42.020;23.992;2023-01-28T06:01:54;2.20;;;1.43;;
3249;SDS011;1637;42.020;23.992;2023-01-28T06:04:20;1.93;;;1.23;;
3249;SDS011;1637;42.020;23.992;2023-01-28T06:06:49;1.70;;;1.10;;
3249;SDS011;1637;42.020;23.992;2023-01-28T06:09:16;2.27;;;1.40;;
3249;SDS011;1637;42.020;23.992;2023-01-28T06:11:42;3.20;;;2.00;;
3249;SDS011;1637;42.020;23.992;2023-01-28T06:14:10;1.53;;;1.40;;
3249;SDS011;1637;42.020;23.992;2023-01-28T06:16:37;1.80;;;1.53;;
3249;SDS011;1637;42.020;23.992;2023-01-28T06:19:04;2.57;;;1.50;;
3249;SDS011;1637;42.020;23.992;2023-01-28T06:21:31;4.43;;;1.77;;
3249;SDS011;1637;42.020;23.992;2023-01-28T06:23:59;2.03;;;1.57;;
3249;SDS011;1637;42.020;23.992;2023-01-28T06:26:26;1.83;;;1.47;;
3249;SDS011;1637;42.020;23.992;2023-01-28T06:28:52;2.90;;;1.87;;
3249;SDS011;1637;42.020;23.992;2023-01-28T06:31:19;3.90;;;2.33;;
3249;SDS011;1637;42.020;23.992;2023-01-28T06:33:46;2.13;;;1.33;;
3249;SDS011;1637;42.020;23.992;2023-01-28T06:36:13;4.63;;;2.90;;
3249;SDS011;1637;42.020;23.992;2023-01-28T06:38:40;3.07;;;1.80;;
3249;SDS011;1637;42.020;23.992;2023-01-28T06:41:08;3.77;;;1.97;;
3249;SDS011;1637;42.020;23.992;2023-01-28T06:43:35;16.43;;;8.43;;
3249;SDS011;1637;42.020;23.992;2023-01-28T06:46:01;13.47;;;8.40;;
3249;SDS011;1637;42.020;23.992;2023-01-28T06:48:28;2.13;;;1.93;;
3249;SDS011;1637;42.020;23.992;2023-01-28T06:50:56;2.13;;;1.60;;
3249;SDS011;1637;42.020;23.992;2023-01-28T06:53:23;1.63;;;1.30;;
3249;SDS011;1637;42.020;23.992;2023-01-28T06:55:49;1.20;;;1.10;;
3249;SDS011;1637;42.020;23.992;2023-01-28T06:58:18;2.00;;;1.87;;
3249;SDS011;1637;42.020;23.992;2023-01-28T07:00:45;3.70;;;2.50;;
3249;SDS011;1637;42.020;23.992;2023-01-28T07:03:11;9.17;;;4.30;;
3249;SDS011;1637;42.020;23.992;2023-01-28T07:05:38;24.73;;;13.20;;
3249;SDS011;1637;42.020;23.992;2023-01-28T07:08:05;175.73;;;78.13;;
3249;SDS011;1637;42.020;23.992;2023-01-28T07:10:32;16.70;;;10.40;;
3249;SDS011;1637;42.020;23.992;2023-01-28T07:12:59;19.43;;;8.17;;
3249;SDS011;1637;42.020;23.992;2023-01-28T07:15:27;7.40;;;4.57;;
3249;SDS011;1637;42.020;23.992;2023-01-28T07:17:54;4.77;;;3.37;;
3249;SDS011;1637;42.020;23.992;2023-01-28T07:20:21;7.40;;;4.57;;
3249;SDS011;1637;42.020;23.992;2023-01-28T07:22:48;9.93;;;6.10;;
3249;SDS011;1637;42.020;23.992;2023-01-28T07:25:15;24.67;;;10.67;;
3249;SDS011;1637;42.020;23.992;2023-01-28T07:27:46;68.43;;;27.90;;
3249;SDS011;1637;42.020;23.992;2023-01-28T07:30:14;22.20;;;9.90;;
3249;SDS011;1637;42.020;23.992;2023-01-28T07:32:43;26.87;;;11.37;;
3249;SDS011;1637;42.020;23.992;2023-01-28T07:35:10;11.20;;;5.90;;
3249;SDS011;1637;42.020;23.992;2023-01-28T07:37:38;10.37;;;5.90;;
3249;SDS011;1637;42.020;23.992;2023-01-28T07:40:05;9.07;;;4.67;;
3249;SDS011;1637;42.020;23.992;2023-01-28T07:42:33;14.30;;;6.57;;
3249;SDS011;1637;42.020;23.992;2023-01-28T07:45:00;11.40;;;6.67;;
3249;SDS011;1637;42.020;23.992;2023-01-28T07:47:27;10.17;;;7.00;;
3249;SDS011;1637;42.020;23.992;2023-01-28T07:49:55;12.20;;;5.97;;
3249;SDS011;1637;42.020;23.992;2023-01-28T07:52:22;29.10;;;14.73;;
3249;SDS011;1637;42.020;23.992;2023-01-28T07:54:49;16.20;;;7.83;;
3249;SDS011;1637;42.020;23.992;2023-01-28T07:57:15;12.67;;;6.93;;
3249;SDS011;1637;42.020;23.992;2023-01-28T07:59:48;15.83;;;8.40;;
3249;SDS011;1637;42.020;23.992;2023-01-28T08:02:15;8.97;;;5.20;;
3249;SDS011;1637;42.020;23.992;2023-01-28T08:04:43;8.07;;;4.07;;
3249;SDS011;1637;42.020;23.992;2023-01-28T08:07:11;5.97;;;4.00;;
3249;SDS011;1637;42.020;23.992;2023-01-28T08:09:38;10.27;;;6.57;;
3249;SDS011;1637;42.020;23.992;2023-01-28T08:12:05;3.90;;;2.53;;
3249;SDS011;1637;42.020;23.992;2023-01-28T08:14:32;2.40;;;2.00;;
3249;SDS011;1637;42.020;23.992;2023-01-28T08:16:59;4.40;;;3.20;;
3249;SDS011;1637;42.020;23.992;2023-01-28T08:19:25;5.97;;;3.30;;
3249;SDS011;1637;42.020;23.992;2023-01-28T08:21:52;8.33;;;3.37;;
3249;SDS011;1637;42.020;23.992;2023-01-28T08:24:20;13.10;;;4.47;;
3249;SDS011;1637;42.020;23.992;2023-01-28T08:26:47;6.40;;;3.63;;
3249;SDS011;1637;42.020;23.992;2023-01-28T08:29:14;8.80;;;5.50;;
3249;SDS011;1637;42.020;23.992;2023-01-28T08:31:41;9.10;;;4.17;;
3249;SDS011;1637;42.020;23.992;2023-01-28T08:34:08;2.40;;;2.20;;
3249;SDS011;1637;42.020;23.992;2023-01-28T08:36:35;1.90;;;1.70;;
3249;SDS011;1637;42.020;23.992;2023-01-28T08:39:01;2.60;;;2.00;;
3249;SDS011;1637;42.020;23.992;2023-01-28T08:41:31;3.77;;;2.43;;
3249;SDS011;1637;42.020;23.992;2023-01-28T08:43:58;4.90;;;4.00;;
3249;SDS011;1637;42.020;23.992;2023-01-28T08:46:25;4.47;;;3.40;;
3249;SDS011;1637;42.020;23.992;2023-01-28T08:48:52;5.60;;;3.27;;
3249;SDS011;1637;42.020;23.992;2023-01-28T08:51:19;5.30;;;4.10;;
3249;SDS011;1637;42.020;23.992;2023-01-28T08:53:45;8.60;;;3.67;;
3249;SDS011;1637;42.020;23.992;2023-01-28T08:56:12;8.40;;;3.90;;
3249;SDS011;1637;42.020;23.992;2023-01-28T08:58:42;9.00;;;6.57;;
3249;SDS011;1637;42.020;23.992;2023-01-28T09:01:09;5.93;;;3.77;;
3249;SDS011;1637;42.020;23.992;2023-01-28T09:03:36;7.67;;;3.80;;
3249;SDS011;1637;42.020;23.992;2023-01-28T09:06:03;8.87;;;5.20;;
3249;SDS011;1637;42.020;23.992;2023-01-28T09:08:30;7.63;;;5.13;;
3249;SDS011;1637;42.020;23.992;2023-01-28T09:10:57;42.20;;;16.80;;
3249;SDS011;1637;42.020;23.992;2023-01-28T09:13:25;9.80;;;4.77;;
3249;SDS011;1637;42.020;23.992;2023-01-28T09:15:54;5.27;;;2.80;;
3249;SDS011;1637;42.020;23.992;2023-01-28T09:18:21;12.03;;;5.73;;
3249;SDS011;1637;42.020;23.992;2023-01-28T09:20:48;6.80;;;3.43;;
3249;SDS011;1637;42.020;23.992;2023-01-28T09:23:14;14.30;;;6.07;;
3249;SDS011;1637;42.020;23.992;2023-01-28T09:25:41;17.97;;;8.90;;
3249;SDS011;1637;42.020;23.992;2023-01-28T09:28:08;17.20;;;8.10;;
3249;SDS011;1637;42.020;23.992;2023-01-28T09:30:35;9.60;;;5.60;;
3249;SDS011;1637;42.020;23.992;2023-01-28T09:33:05;10.27;;;6.30;;
3249;SDS011;1637;42.020;23.992;2023-01-28T09:35:32;9.20;;;6.77;;
3249;SDS011;1637;42.020;23.992;2023-01-28T09:38:00;13.77;;;6.83;;
3249;SDS011;1637;42.020;23.992;2023-01-28T09:40:30;10.87;;;5.67;;
3249;SDS011;1637;42.020;23.992;2023-01-28T09:45:57;7.60;;;4.40;;
3249;SDS011;1637;42.020;23.992;2023-01-28T09:48:29;6.53;;;3.57;;
3249;SDS011;1637;42.020;23.992;2023-01-28T09:51:02;7.90;;;4.47;;
3249;SDS011;1637;42.020;23.992;2023-01-28T09:53:34;4.80;;;2.90;;
3249;SDS011;1637;42.020;23.992;2023-01-28T09:56:08;7.20;;;3.70;;
3249;SDS011;1637;42.020;23.992;2023-01-28T09:58:38;3.90;;;3.30;;
3249;SDS011;1637;42.020;23.992;2023-01-28T10:01:12;3.50;;;2.20;;
3249;SDS011;1637;42.020;23.992;2023-01-28T10:03:58;4.13;;;2.97;;
3249;SDS011;1637;42.020;23.992;2023-01-28T10:06:41;4.90;;;3.10;;
3249;SDS011;1637;42.020;23.992;2023-01-28T10:09:20;3.00;;;2.70;;
3249;SDS011;1637;42.020;23.992;2023-01-28T10:12:00;3.67;;;2.63;;
3249;SDS011;1637;42.020;23.992;2023-01-28T10:14:44;2.50;;;1.93;;
3249;SDS011;1637;42.020;23.992;2023-01-28T10:17:21;2.67;;;1.90;;
3249;SDS011;1637;42.020;23.992;2023-01-28T10:19:56;2.10;;;1.80;;
3249;SDS011;1637;42.020;23.992;2023-01-28T10:22:26;2.90;;;1.63;;
3249;SDS011;1637;42.020;23.992;2023-01-28T10:24:56;2.03;;;1.83;;
3249;SDS011;1637;42.020;23.992;2023-01-28T10:27:28;2.73;;;1.80;;
3249;SDS011;1637;42.020;23.992;2023-01-28T10:29:56;1.73;;;1.40;;
3249;SDS011;1637;42.020;23.992;2023-01-28T10:32:27;1.67;;;1.57;;
3249;SDS011;1637;42.020;23.992;2023-01-28T10:34:56;3.50;;;2.77;;
3249;SDS011;1637;42.020;23.992;2023-01-28T10:37:25;7.43;;;4.27;;
3249;SDS011;1637;42.020;23.992;2023-01-28T10:39:54;8.60;;;4.97;;
3249;SDS011;1637;42.020;23.992;2023-01-28T10:42:25;5.50;;;4.20;;
3249;SDS011;1637;42.020;23.992;2023-01-28T10:44:54;14.63;;;8.03;;
3249;SDS011;1637;42.020;23.992;2023-01-28T10:47:26;41.63;;;17.87;;
3249;SDS011;1637;42.020;23.992;2023-01-28T10:49:58;16.80;;;9.17;;
3249;SDS011;1637;42.020;23.992;2023-01-28T10:52:26;16.03;;;9.03;;
3249;SDS011;1637;42.020;23.992;2023-01-28T10:55:00;9.23;;;5.57;;
3249;SDS011;1637;42.020;23.992;2023-01-28T10:57:28;19.53;;;12.20;;
3249;SDS011;1637;42.020;23.992;2023-01-28T10:59:55;34.37;;;17.70;;
3249;SDS011;1637;42.020;23.992;2023-01-28T11:02:25;17.60;;;9.87;;
3249;SDS011;1637;42.020;23.992;2023-01-28T11:05:02;6.27;;;3.93;;
3249;SDS011;1637;42.020;23.992;2023-01-28T11:07:31;13.63;;;8.97;;
3249;SDS011;1637;42.020;23.992;2023-01-28T11:09:58;15.73;;;8.77;;
3249;SDS011;1637;42.020;23.992;2023-01-28T11:12:25;26.53;;;11.23;;
3249;SDS011;1637;42.020;23.992;2023-01-28T11:14:54;3.93;;;2.80;;
3249;SDS011;1637;42.020;23.992;2023-01-28T11:17:22;5.40;;;3.40;;
3249;SDS011;1637;42.020;23.992;2023-01-28T11:19:51;9.83;;;5.10;;
3249;SDS011;1637;42.020;23.992;2023-01-28T11:22:22;7.87;;;5.10;;
3249;SDS011;1637;42.020;23.992;2023-01-28T11:24:54;5.87;;;3.83;;
3249;SDS011;1637;42.020;23.992;2023-01-28T11:27:23;8.47;;;4.37;;
3249;SDS011;1637;42.020;23.992;2023-01-28T11:29:55;6.10;;;3.90;;
3249;SDS011;1637;42.020;23.992;2023-01-28T11:32:26;15.10;;;9.77;;
3249;SDS011;1637;42.020;23.992;2023-01-28T11:34:54;8.80;;;5.80;;
3249;SDS011;1637;42.020;23.992;2023-01-28T11:37:25;3.73;;;3.33;;
3249;SDS011;1637;42.020;23.992;2023-01-28T11:40:00;6.03;;;4.23;;
3249;SDS011;1637;42.020;23.992;2023-01-28T11:42:28;9.90;;;6.13;;
3249;SDS011;1637;42.020;23.992;2023-01-28T11:44:55;6.70;;;4.33;;
3249;SDS011;1637;42.020;23.992;2023-01-28T11:47:28;15.50;;;7.57;;
3249;SDS011;1637;42.020;23.992;2023-01-28T11:50:14;33.47;;;14.10;;
3249;SDS011;1637;42.020;23.992;2023-01-28T11:52:56;8.83;;;4.20;;
3249;SDS011;1637;42.020;23.992;2023-01-28T11:55:36;9.10;;;5.20;;
3249;SDS011;1637;42.020;23.992;2023-01-28T11:58:12;3.53;;;2.60;;
3249;SDS011;1637;42.020;23.992;2023-01-28T12:00:47;4.80;;;3.43;;
3249;SDS011;1637;42.020;23.992;2023-01-28T12:03:24;7.27;;;5.40;;
3249;SDS011;1637;42.020;23.992;2023-01-28T12:06:04;11.77;;;6.07;;
3249;SDS011;1637;42.020;23.992;2023-01-28T12:08:47;4.40;;;3.10;;
3249;SDS011;1637;42.020;23.992;2023-01-28T12:11:24;12.27;;;7.17;;
3249;SDS011;1637;42.020;23.992;2023-01-28T12:14:17;12.13;;;6.50;;
3249;SDS011;1637;42.020;23.992;2023-01-28T12:16:54;8.37;;;5.00;;
3249;SDS011;1637;42.020;23.992;2023-01-28T12:19:35;4.60;;;3.77;;
3249;SDS011;1637;42.020;23.992;2023-01-28T12:22:15;11.47;;;7.00;;
3249;SDS011;1637;42.020;23.992;2023-01-28T12:25:05;16.53;;;10.87;;
3249;SDS011;1637;42.020;23.992;2023-01-28T12:27:47;8.43;;;4.30;;
3249;SDS011;1637;42.020;23.992;2023-01-28T12:30:27;9.27;;;5.10;;
3249;SDS011;1637;42.020;23.992;2023-01-28T12:33:06;10.13;;;5.50;;
3249;SDS011;1637;42.020;23.992;2023-01-28T12:35:53;3.13;;;2.73;;
3249;SDS011;1637;42.020;23.992;2023-01-28T12:38:33;7.13;;;5.37;;
3249;SDS011;1637;42.020;23.992;2023-01-28T12:41:11;6.77;;;3.70;;
3249;SDS011;1637;42.020;23.992;2023-01-28T12:43:49;27.30;;;10.40;;
3249;SDS011;1637;42.020;23.992;2023-01-28T12:46:24;8.30;;;5.13;;
3249;SDS011;1637;42.020;23.992;2023-01-28T12:48:58;4.13;;;3.07;;
3249;SDS011;1637;42.020;23.992;2023-01-28T12:51:29;10.23;;;6.47;;
3249;SDS011;1637;42.020;23.992;2023-01-28T12:54:00;4.03;;;2.90;;
3249;SDS011;1637;42.020;23.992;2023-01-28T12:56:33;9.20;;;5.00;;
3249;SDS011;1637;42.020;23.992;2023-01-28T12:59:06;21.77;;;9.63;;
3249;SDS011;1637;42.020;23.992;2023-01-28T13:01:39;21.50;;;10.53;;
3249;SDS011;1637;42.020;23.992;2023-01-28T13:04:11;8.00;;;4.23;;
3249;SDS011;1637;42.020;23.992;2023-01-28T13:06:45;22.63;;;19.43;;
3249;SDS011;1637;42.020;23.992;2023-01-28T13:09:17;9.50;;;8.10;;
3249;SDS011;1637;42.020;23.992;2023-01-28T13:11:47;2.70;;;2.50;;
3249;SDS011;1637;42.020;23.992;2023-01-28T13:14:16;4.47;;;2.23;;
3249;SDS011;1637;42.020;23.992;2023-01-28T13:16:46;5.33;;;4.23;;
3249;SDS011;1637;42.020;23.992;2023-01-28T13:19:22;11.97;;;6.00;;
3249;SDS011;1637;42.020;23.992;2023-01-28T13:21:50;8.60;;;3.03;;
3249;SDS011;1637;42.020;23.992;2023-01-28T13:24:22;5.17;;;3.90;;
3249;SDS011;1637;42.020;23.992;2023-01-28T13:27:08;11.00;;;4.80;;
3249;SDS011;1637;42.020;23.992;2023-01-28T13:29:36;23.77;;;11.90;;
3249;SDS011;1637;42.020;23.992;2023-01-28T13:34:57;2.77;;;2.17;;
3249;SDS011;1637;42.020;23.992;2023-01-28T13:37:28;4.00;;;2.50;;
3249;SDS011;1637;42.020;23.992;2023-01-28T13:39:58;25.83;;;10.97;;
3249;SDS011;1637;42.020;23.992;2023-01-28T13:42:30;9.40;;;5.63;;
3249;SDS011;1637;42.020;23.992;2023-01-28T13:45:07;3.00;;;1.70;;
3249;SDS011;1637;42.020;23.992;2023-01-28T13:47:47;7.20;;;3.50;;
3249;SDS011;1637;42.020;23.992;2023-01-28T13:50:18;13.40;;;6.93;;
3249;SDS011;1637;42.020;23.992;2023-01-28T13:52:49;28.13;;;8.83;;
3249;SDS011;1637;42.020;23.992;2023-01-28T13:55:21;9.97;;;4.20;;
3249;SDS011;1637;42.020;23.992;2023-01-28T14:07:07;6.10;;;3.30;;
3249;SDS011;1637;42.020;23.992;2023-01-28T14:09:58;4.27;;;3.30;;
3249;SDS011;1637;42.020;23.992;2023-01-28T14:12:46;4.90;;;3.13;;
3249;SDS011;1637;42.020;23.992;2023-01-28T14:15:33;6.30;;;3.37;;
3249;SDS011;1637;42.020;23.992;2023-01-28T14:18:13;6.53;;;4.37;;
3249;SDS011;1637;42.020;23.992;2023-01-28T14:20:48;5.40;;;2.60;;
3249;SDS011;1637;42.020;23.992;2023-01-28T14:23:17;6.27;;;4.33;;
3249;SDS011;1637;42.020;23.992;2023-01-28T14:25:50;4.83;;;3.60;;
3249;SDS011;1637;42.020;23.992;2023-01-28T14:28:38;5.10;;;3.00;;
3249;SDS011;1637;42.020;23.992;2023-01-28T14:31:13;4.50;;;2.97;;
3249;SDS011;1637;42.020;23.992;2023-01-28T14:33:43;4.00;;;3.23;;
3249;SDS011;1637;42.020;23.992;2023-01-28T14:36:13;3.10;;;2.80;;
3249;SDS011;1637;42.020;23.992;2023-01-28T14:38:41;3.80;;;3.00;;
3249;SDS011;1637;42.020;23.992;2023-01-28T14:41:10;5.63;;;3.60;;
3249;SDS011;1637;42.020;23.992;2023-01-28T14:43:47;3.17;;;2.80;;
3249;SDS011;1637;42.020;23.992;2023-01-28T14:46:17;4.70;;;3.90;;
3249;SDS011;1637;42.020;23.992;2023-01-28T14:48:58;5.60;;;3.80;;
3249;SDS011;1637;42.020;23.992;2023-01-28T14:51:39;6.23;;;2.80;;
3249;SDS011;1637;42.020;23.992;2023-01-28T14:54:17;4.77;;;3.03;;
3249;SDS011;1637;42.020;23.992;2023-01-28T14:57:00;4.97;;;3.00;;
3249;SDS011;1637;42.020;23.992;2023-01-28T14:59:41;3.20;;;2.80;;
3249;SDS011;1637;42.020;23.992;2023-01-28T15:02:16;8.07;;;2.67;;
3249;SDS011;1637;42.020;23.992;2023-01-28T15:04:45;3.67;;;2.90;;
3249;SDS011;1637;42.020;23.992;2023-01-28T15:07:16;6.03;;;3.43;;
3249;SDS011;1637;42.020;23.992;2023-01-28T15:09:45;5.40;;;3.70;;
3249;SDS011;1637;42.020;23.992;2023-01-28T15:12:12;4.07;;;3.30;;
3249;SDS011;1637;42.020;23.992;2023-01-28T15:14:42;4.00;;;3.50;;
3249;SDS011;1637;42.020;23.992;2023-01-28T15:17:15;5.10;;;3.07;;
3249;SDS011;1637;42.020;23.992;2023-01-28T15:19:49;4.33;;;3.67;;
3249;SDS011;1637;42.020;23.992;2023-01-28T15:22:18;4.47;;;3.53;;
3249;SDS011;1637;42.020;23.992;2023-01-28T15:24:50;4.70;;;3.67;;
3249;SDS011;1637;42.020;23.992;2023-01-28T15:27:18;3.40;;;3.00;;
3249;SDS011;1637;42.020;23.992;2023-01-28T15:29:54;4.37;;;3.20;;